地図

経路データ

SID SEASON NUMBER BASIN SUBBASIN NAME ISO_TIME NATURE LAT LON WMO_WIND WMO_PRES WMO_AGENCY TRACK_TYPE DIST2LAND LANDFALL IFLAG USA_AGENCY USA_ATCF_ID USA_LAT USA_LON USA_RECORD USA_STATUS USA_WIND USA_PRES USA_SSHS USA_R34_NE USA_R34_SE USA_R34_SW USA_R34_NW USA_R50_NE USA_R50_SE USA_R50_SW USA_R50_NW USA_R64_NE USA_R64_SE USA_R64_SW USA_R64_NW USA_POCI USA_ROCI USA_RMW USA_EYE TOKYO_LAT TOKYO_LON TOKYO_GRADE TOKYO_WIND TOKYO_PRES TOKYO_R50_DIR TOKYO_R50_LONG TOKYO_R50_SHORT TOKYO_R30_DIR TOKYO_R30_LONG TOKYO_R30_SHORT TOKYO_LAND CMA_LAT CMA_LON CMA_CAT CMA_WIND CMA_PRES HKO_LAT HKO_LON HKO_CAT HKO_WIND HKO_PRES NEWDELHI_LAT NEWDELHI_LON NEWDELHI_GRADE NEWDELHI_WIND NEWDELHI_PRES NEWDELHI_CI NEWDELHI_DP NEWDELHI_POCI REUNION_LAT REUNION_LON REUNION_TYPE REUNION_WIND REUNION_PRES REUNION_TNUM REUNION_CI REUNION_RMW REUNION_R34_NE REUNION_R34_SE REUNION_R34_SW REUNION_R34_NW REUNION_R50_NE REUNION_R50_SE REUNION_R50_SW REUNION_R50_NW REUNION_R64_NE REUNION_R64_SE REUNION_R64_SW REUNION_R64_NW BOM_LAT BOM_LON BOM_TYPE BOM_WIND BOM_PRES BOM_TNUM BOM_CI BOM_RMW BOM_R34_NE BOM_R34_SE BOM_R34_SW BOM_R34_NW BOM_R50_NE BOM_R50_SE BOM_R50_SW BOM_R50_NW BOM_R64_NE BOM_R64_SE BOM_R64_SW BOM_R64_NW BOM_ROCI BOM_POCI BOM_EYE BOM_POS_METHOD BOM_PRES_METHOD NADI_LAT NADI_LON NADI_CAT NADI_WIND NADI_PRES WELLINGTON_LAT WELLINGTON_LON WELLINGTON_WIND WELLINGTON_PRES DS824_LAT DS824_LON DS824_STAGE DS824_WIND DS824_PRES TD9636_LAT TD9636_LON TD9636_STAGE TD9636_WIND TD9636_PRES TD9635_LAT TD9635_LON TD9635_WIND TD9635_PRES TD9635_ROCI NEUMANN_LAT NEUMANN_LON NEUMANN_CLASS NEUMANN_WIND NEUMANN_PRES MLC_LAT MLC_LON MLC_CLASS MLC_WIND MLC_PRES USA_GUST BOM_GUST BOM_GUST_PER REUNION_GUST REUNION_GUST_PER USA_SEAHGT USA_SEARAD_NE USA_SEARAD_SE USA_SEARAD_SW USA_SEARAD_NW STORM_SPEED STORM_DIR
1887285N11320 1887 66 NA NA NOT_NAMED 1887-10-12 00:00:00 TS 10.5000 -40.5000 main 1379 1343 _____________O -1 10.5000 -40.5000 TD 30 11 298
1887285N11320 1887 66 NA NA NOT_NAMED 1887-10-12 03:00:00 TS 10.7627 -40.9998 main 1349 1315 _____________P -1 10.7627 -40.9998 TD 30 11 297
1887285N11320 1887 66 NA NA NOT_NAMED 1887-10-12 06:00:00 TS 11.0000 -41.5000 main 1315 1283 _____________O -1 11.0000 -41.5000 TD 30 11 294
1887285N11320 1887 66 NA NA NOT_NAMED 1887-10-12 09:00:00 TS 11.1999 -42.0001 main 1283 1254 _____________P -1 11.1999 -42.0001 TD 32 11 292
1887285N11320 1887 66 NA NA NOT_NAMED 1887-10-12 12:00:00 TS 11.4000 -42.5000 main 1254 1226 _____________O -1 11.4000 -42.5000 TS 35 11 295
1887285N11320 1887 66 NA NA NOT_NAMED 1887-10-12 15:00:00 TS 11.6499 -43.0000 main 1226 1209 _____________P -1 11.6499 -43.0000 TS 37 11 297
1887285N11320 1887 66 NA NA NOT_NAMED 1887-10-12 18:00:00 TS 11.9000 -43.5000 main 1209 1186 _____________O -1 11.9000 -43.5000 TS 40 11 293
1887285N11320 1887 66 NA NA NOT_NAMED 1887-10-12 21:00:00 TS 12.0775 -44.0078 main 1187 1166 _____________P -1 12.0775 -44.0078 TS 42 11 292
1887285N11320 1887 66 NA NA NOT_NAMED 1887-10-13 00:00:00 TS 12.3000 -44.5000 main 1167 1160 _____________O -1 12.3000 -44.5000 TS 45 11 303
1887285N11320 1887 66 NA NA NOT_NAMED 1887-10-13 03:00:00 TS 12.6774 -44.9500 main 1168 1168 _____________P -1 12.6774 -44.9500 TS 47 12 312
1887285N11320 1887 66 NA NA NOT_NAMED 1887-10-13 06:00:00 TS 13.1000 -45.4000 main 1179 1173 _____________O -1 13.1000 -45.4000 TS 50 12 309
1887285N11320 1887 66 NA NA NOT_NAMED 1887-10-13 09:00:00 TS 13.4576 -45.9225 main 1185 1173 _____________P -1 13.4576 -45.9225 TS 52 12 306
1887285N11320 1887 66 NA NA NOT_NAMED 1887-10-13 12:00:00 TS 13.8000 -46.4000 main 1179 1175 _____________O -1 13.8000 -46.4000 TS 55 11 311
1887285N11320 1887 66 NA NA NOT_NAMED 1887-10-13 15:00:00 TS 14.1724 -46.7600 main 1191 1191 _____________P -1 14.1724 -46.7600 TS 57 9 320
1887285N11320 1887 66 NA NA NOT_NAMED 1887-10-13 18:00:00 TS 14.5000 -47.0000 main 1208 1208 _____________O -1 14.5000 -47.0000 TS 60 6 327
1887285N11320 1887 66 NA NA NOT_NAMED 1887-10-13 21:00:00 TS 14.7149 -47.1227 main 1222 1222 _____________P -1 14.7149 -47.1227 TS 62 4 334
1887285N11320 1887 66 NA NA NOT_NAMED 1887-10-14 00:00:00 TS 14.9000 -47.2000 main 1236 1236 _____________O -1 14.9000 -47.2000 HU 65 5 335
1887285N11320 1887 66 NA NA NOT_NAMED 1887-10-14 03:00:00 TS 15.1425 -47.3276 main 1251 1251 _____________P -1 15.1425 -47.3276 HU 65 6 330
1887285N11320 1887 66 NA NA NOT_NAMED 1887-10-14 06:00:00 TS 15.4000 -47.5000 main 1270 1270 _____________O -1 15.4000 -47.5000 HU 65 6 320
1887285N11320 1887 66 NA NA NOT_NAMED 1887-10-14 09:00:00 TS 15.6351 -47.7575 main 1276 1276 _____________P -1 15.6351 -47.7575 HU 67 7 316
1887285N11320 1887 66 NA NA NOT_NAMED 1887-10-14 12:00:00 TS 15.9000 -48.0000 main 1297 1297 _____________O -1 15.9000 -48.0000 HU 70 7 329
1887285N11320 1887 66 NA NA NOT_NAMED 1887-10-14 15:00:00 TS 16.2275 -48.1301 main 1324 1324 _____________P -1 16.2275 -48.1301 HU 70 7 345
1887285N11320 1887 66 NA NA NOT_NAMED 1887-10-14 18:00:00 TS 16.6000 -48.2000 main 1361 1361 _____________O -1 16.6000 -48.2000 HU 70 8 352
1887285N11320 1887 66 NA NA NOT_NAMED 1887-10-14 21:00:00 TS 16.9925 -48.2501 main 1399 1399 _____________P -1 16.9925 -48.2501 HU 70 8 353
1887285N11320 1887 66 NA NA NOT_NAMED 1887-10-15 00:00:00 TS 17.4000 -48.3000 main 1438 1438 _____________O -1 17.4000 -48.3000 HU 70 8 350
1887285N11320 1887 66 NA NA NOT_NAMED 1887-10-15 03:00:00 TS 17.8075 -48.4074 main 1474 1474 _____________P -1 17.8075 -48.4074 HU 70 8 347
1887285N11320 1887 66 NA NA NOT_NAMED 1887-10-15 06:00:00 TS 18.2000 -48.5000 main 1509 1509 _____________O -1 18.2000 -48.5000 HU 70 8 352
1887285N11320 1887 66 NA NA NOT_NAMED 1887-10-15 09:00:00 TS 18.5575 -48.5226 main 1550 1550 _____________P -1 18.5575 -48.5226 HU 72 7 0
1887285N11320 1887 66 NA NA NOT_NAMED 1887-10-15 12:00:00 TS 18.9000 -48.5000 main 1581 1581 _____________O -1 18.9000 -48.5000 HU 75 7 5
1887285N11320 1887 66 NA NA NOT_NAMED 1887-10-15 15:00:00 TS 19.2425 -48.4575 main 1612 1612 _____________P -1 19.2425 -48.4575 HU 75 7 8
1887285N11320 1887 66 NA NA NOT_NAMED 1887-10-15 18:00:00 TS 19.6000 -48.4000 main 1657 1657 _____________O -1 19.6000 -48.4000 HU 75 8 6
1887285N11320 1887 66 NA NA NOT_NAMED 1887-10-15 21:00:00 TS 20.0000 -48.3723 main 1698 1698 _____________P -1 20.0000 -48.3723 HU 77 8 7
1887285N11320 1887 66 NA NA NOT_NAMED 1887-10-16 00:00:00 TS 20.4000 -48.3000 main 1739 1739 _____________O -1 20.4000 -48.3000 HU 80 8 17
1887285N11320 1887 66 NA NA NOT_NAMED 1887-10-16 03:00:00 TS 20.7575 -48.1225 main 1782 1782 _____________P -1 20.7575 -48.1225 HU 82 8 28
1887285N11320 1887 66 NA NA NOT_NAMED 1887-10-16 06:00:00 TS 21.1000 -47.9000 main 1819 1819 _____________O -1 21.1000 -47.9000 HU 85 8 33
1887285N11320 1887 66 NA NA NOT_NAMED 1887-10-16 09:00:00 TS 21.4276 -47.6552 main 1856 1856 _____________P -1 21.4276 -47.6552 HU 85 8 28
1887285N11320 1887 66 NA NA NOT_NAMED 1887-10-16 12:00:00 TS 21.8000 -47.5000 main 1900 1900 _____________O -1 21.8000 -47.5000 HU 85 975 9 7
1887285N11320 1887 66 NA NA NOT_NAMED 1887-10-16 15:00:00 TS 22.2850 -47.5472 main 1935 1920 _____________P -1 22.2850 -47.5472 HU 87 10 349
1887285N11320 1887 66 NA NA NOT_NAMED 1887-10-16 18:00:00 TS 22.8000 -47.7000 main 1925 1925 _____________O -1 22.8000 -47.7000 HU 90 10 349
1887285N11320 1887 66 NA NA NOT_NAMED 1887-10-16 21:00:00 TS 23.2719 -47.7533 main 1927 1918 _____________P -1 23.2719 -47.7533 HU 90 9 343
1887285N11320 1887 66 NA NA NOT_NAMED 1887-10-17 00:00:00 TS 23.7000 -48.0000 main 1918 1868 _____________O -1 23.7000 -48.0000 HU 90 12 314
1887285N11320 1887 66 NA NA NOT_NAMED 1887-10-17 03:00:00 TS 24.0731 -48.6597 main 1861 1794 _____________P -1 24.0731 -48.6597 HU 90 15 297
1887285N11320 1887 66 NA NA NOT_NAMED 1887-10-17 06:00:00 TS 24.4000 -49.5000 main 1794 1730 _____________O -1 24.4000 -49.5000 HU 90 17 294
1887285N11320 1887 66 NA NA NOT_NAMED 1887-10-17 09:00:00 TS 24.7380 -50.3246 main 1730 1677 _____________P -1 24.7380 -50.3246 HU 87 15 294
1887285N11320 1887 66 NA NA NOT_NAMED 1887-10-17 12:00:00 TS 25.0000 -51.0000 main 1677 1654 _____________O -1 25.0000 -51.0000 HU 85 10 294
1887285N11320 1887 66 NA NA NOT_NAMED 1887-10-17 15:00:00 TS 25.1368 -51.3256 main 1654 1640 _____________P -1 25.1368 -51.3256 HU 82 5 294
1887285N11320 1887 66 NA NA NOT_NAMED 1887-10-17 18:00:00 TS 25.2000 -51.5000 main 1640 1622 _____________O -1 25.2000 -51.5000 HU 80 4 284
1887285N11320 1887 66 NA NA NOT_NAMED 1887-10-17 21:00:00 TS 25.2350 -51.7502 main 1613 1599 _____________P -1 25.2350 -51.7502 HU 77 5 282
1887285N11320 1887 66 NA NA NOT_NAMED 1887-10-18 00:00:00 TS 25.3000 -52.0000 main 1599 1586 _____________O -1 25.3000 -52.0000 HU 75 5 299
1887285N11320 1887 66 NA NA NOT_NAMED 1887-10-18 03:00:00 TS 25.4850 -52.2499 main 1591 1575 _____________P -1 25.4850 -52.2499 HU 72 6 312
1887285N11320 1887 66 NA NA NOT_NAMED 1887-10-18 06:00:00 TS 25.7000 -52.5000 main 1575 1554 _____________O -1 25.7000 -52.5000 HU 70 6 307
1887285N11320 1887 66 NA NA NOT_NAMED 1887-10-18 09:00:00 TS 25.8501 -52.7800 main 1560 1548 _____________P -1 25.8501 -52.7800 HU 70 5 304
1887285N11320 1887 66 NA NA NOT_NAMED 1887-10-18 12:00:00 TS 26.0000 -53.0000 main 1548 1545 _____________O -1 26.0000 -53.0000 HU 70 4 322
1887285N11320 1887 66 NA NA NOT_NAMED 1887-10-18 15:00:00 TS 26.1924 -53.0801 main 1551 1551 _____________P -1 26.1924 -53.0801 HU 70 4 348
1887285N11320 1887 66 NA NA NOT_NAMED 1887-10-18 18:00:00 TS 26.4000 -53.1000 main 1563 1563 _____________O -1 26.4000 -53.1000 HU 70 4 355
1887285N11320 1887 66 NA NA NOT_NAMED 1887-10-18 21:00:00 TS 26.5999 -53.1276 main 1575 1573 _____________P -1 26.5999 -53.1276 HU 70 4 348
1887285N11320 1887 66 NA NA NOT_NAMED 1887-10-19 00:00:00 TS 26.8000 -53.2000 main 1579 1575 _____________O -1 26.8000 -53.2000 HU 70 5 331
1887285N11320 1887 66 NA NA NOT_NAMED 1887-10-19 03:00:00 TS 27.0075 -53.3774 main 1575 1572 _____________P -1 27.0075 -53.3774 HU 67 5 318
1887285N11320 1887 66 NA NA NOT_NAMED 1887-10-19 06:00:00 TS 27.2000 -53.6000 main 1572 1557 _____________O -1 27.2000 -53.6000 HU 65 4 304
1887285N11320 1887 66 NA NA NOT_NAMED 1887-10-19 09:00:00 TS 27.2525 -53.7933 main 1563 1554 _____________P -1 27.2525 -53.7933 HU 62 5 310
1887285N11320 1887 66 NA NA NOT_NAMED 1887-10-19 12:00:00 TS 27.5000 -54.0000 main 1561 1560 _____________O -1 27.5000 -54.0000 TS 60 11 338
1887285N11320 1887 66 NA NA NOT_NAMED 1887-10-19 15:00:00 TS 28.2526 -54.2421 main 1603 1596 _____________P -1 28.2526 -54.2421 TS 57 18 345
1887285N11320 1887 66 NA NA NOT_NAMED 1887-10-19 18:00:00 TS 29.2000 -54.5000 main 1650 1650 _____________O -1 29.2000 -54.5000 TS 55 18 346
1887285N11320 1887 66 NA NA NOT_NAMED 1887-10-19 21:00:00 TS 29.9700 -54.7508 main 1694 1688 _____________P -1 29.9700 -54.7508 TS 50 17 345
1887285N11320 1887 66 NA NA NOT_NAMED 1887-10-20 00:00:00 TS 30.8000 -55.0000 main 1679 1573 _____________O -1 30.8000 -55.0000 TS 45 20 347
1887285N11320 1887 66 NA NA NOT_NAMED 1887-10-20 03:00:00 TS 31.8874 -55.2496 main 1563 1450 _____________P -1 31.8874 -55.2496 TS 42 22 349
1887285N11320 1887 66 NA NA NOT_NAMED 1887-10-20 06:00:00 ET 32.9000 -55.5000 main 1450 1381 _____________O -1 32.9000 -55.5000 EX 40 17 346
1887285N11320 1887 66 NA NA NOT_NAMED 1887-10-20 09:00:00 ET 33.5625 -55.7501 main 1367 1319 _____________P -1 33.5625 -55.7501 EX 37 12 339
1887285N11320 1887 66 NA NA NOT_NAMED 1887-10-20 12:00:00 ET 34.0000 -56.0000 main 1319 _____________O -1 34.0000 -56.0000 EX 35 10 335

IBTrACS Databaseについて

本データベースは、米国NOAAが公開する1842年以降の世界の熱帯低気圧のベストトラックデータアーカイブInternational Best Track Archive for Climate Stewardship (IBTrACS)を、ウェブで閲覧しやすい形式に変換したものです。

最終更新日:2021-10-21